sensor_id;sensor_type;location;lat;lon;timestamp;P1;durP1;ratioP1;P2;durP2;ratioP2
19406;SDS011;9839;53.364;-1.204;2023-05-14T00:00:10;47.13;;;20.80;;
19406;SDS011;9839;53.364;-1.204;2023-05-14T00:02:36;47.17;;;22.07;;
19406;SDS011;9839;53.364;-1.204;2023-05-14T00:05:02;51.70;;;23.57;;
19406;SDS011;9839;53.364;-1.204;2023-05-14T00:07:27;46.20;;;21.17;;
19406;SDS011;9839;53.364;-1.204;2023-05-14T00:09:55;50.13;;;23.67;;
19406;SDS011;9839;53.364;-1.204;2023-05-14T00:12:21;48.83;;;22.27;;
19406;SDS011;9839;53.364;-1.204;2023-05-14T00:14:46;49.93;;;23.73;;
19406;SDS011;9839;53.364;-1.204;2023-05-14T00:17:12;49.47;;;23.47;;
19406;SDS011;9839;53.364;-1.204;2023-05-14T00:19:37;51.00;;;22.50;;
19406;SDS011;9839;53.364;-1.204;2023-05-14T00:22:06;54.53;;;24.47;;
19406;SDS011;9839;53.364;-1.204;2023-05-14T00:24:34;54.67;;;25.30;;
19406;SDS011;9839;53.364;-1.204;2023-05-14T00:27:00;54.73;;;24.07;;
19406;SDS011;9839;53.364;-1.204;2023-05-14T00:29:26;54.53;;;23.47;;
19406;SDS011;9839;53.364;-1.204;2023-05-14T00:31:52;66.50;;;26.47;;
19406;SDS011;9839;53.364;-1.204;2023-05-14T00:34:17;57.23;;;24.43;;
19406;SDS011;9839;53.364;-1.204;2023-05-14T00:36:42;53.37;;;23.80;;
19406;SDS011;9839;53.364;-1.204;2023-05-14T00:39:08;60.37;;;25.80;;
19406;SDS011;9839;53.364;-1.204;2023-05-14T00:41:34;61.10;;;25.60;;
19406;SDS011;9839;53.364;-1.204;2023-05-14T00:43:59;55.60;;;25.10;;
19406;SDS011;9839;53.364;-1.204;2023-05-14T00:46:25;57.63;;;25.17;;
19406;SDS011;9839;53.364;-1.204;2023-05-14T00:48:51;55.13;;;24.87;;
19406;SDS011;9839;53.364;-1.204;2023-05-14T00:51:17;59.23;;;26.63;;
19406;SDS011;9839;53.364;-1.204;2023-05-14T00:53:43;62.87;;;26.73;;
19406;SDS011;9839;53.364;-1.204;2023-05-14T00:56:09;58.73;;;26.87;;
19406;SDS011;9839;53.364;-1.204;2023-05-14T00:58:35;57.10;;;26.83;;
19406;SDS011;9839;53.364;-1.204;2023-05-14T01:01:00;64.20;;;27.47;;
19406;SDS011;9839;53.364;-1.204;2023-05-14T01:03:26;64.73;;;29.13;;
19406;SDS011;9839;53.364;-1.204;2023-05-14T01:06:00;65.07;;;28.50;;
19406;SDS011;9839;53.364;-1.204;2023-05-14T01:08:54;62.60;;;28.83;;
19406;SDS011;9839;53.364;-1.204;2023-05-14T01:11:25;66.57;;;28.00;;
19406;SDS011;9839;53.364;-1.204;2023-05-14T01:16:37;93.50;;;31.70;;
19406;SDS011;9839;53.364;-1.204;2023-05-14T01:19:05;64.70;;;28.93;;
19406;SDS011;9839;53.364;-1.204;2023-05-14T01:21:38;102.97;;;31.13;;
19406;SDS011;9839;53.364;-1.204;2023-05-14T01:24:05;68.30;;;29.50;;
19406;SDS011;9839;53.364;-1.204;2023-05-14T01:26:31;87.00;;;32.13;;
19406;SDS011;9839;53.364;-1.204;2023-05-14T01:29:08;82.03;;;32.50;;
19406;SDS011;9839;53.364;-1.204;2023-05-14T01:31:38;86.13;;;30.27;;
19406;SDS011;9839;53.364;-1.204;2023-05-14T01:34:04;83.07;;;30.17;;
19406;SDS011;9839;53.364;-1.204;2023-05-14T01:36:31;150.73;;;34.37;;
19406;SDS011;9839;53.364;-1.204;2023-05-14T01:38:57;106.93;;;31.53;;
19406;SDS011;9839;53.364;-1.204;2023-05-14T01:41:24;148.37;;;33.17;;
19406;SDS011;9839;53.364;-1.204;2023-05-14T01:43:50;73.30;;;31.63;;
19406;SDS011;9839;53.364;-1.204;2023-05-14T01:46:17;80.60;;;32.73;;
19406;SDS011;9839;53.364;-1.204;2023-05-14T01:48:43;84.43;;;28.77;;
19406;SDS011;9839;53.364;-1.204;2023-05-14T01:51:09;76.83;;;28.83;;
19406;SDS011;9839;53.364;-1.204;2023-05-14T01:53:34;163.47;;;32.60;;
19406;SDS011;9839;53.364;-1.204;2023-05-14T01:56:00;178.77;;;33.30;;
19406;SDS011;9839;53.364;-1.204;2023-05-14T01:58:25;136.70;;;30.73;;
19406;SDS011;9839;53.364;-1.204;2023-05-14T02:00:51;72.33;;;30.60;;
19406;SDS011;9839;53.364;-1.204;2023-05-14T02:03:16;125.67;;;31.63;;
19406;SDS011;9839;53.364;-1.204;2023-05-14T02:05:41;77.13;;;29.53;;
19406;SDS011;9839;53.364;-1.204;2023-05-14T02:08:07;91.27;;;30.97;;
19406;SDS011;9839;53.364;-1.204;2023-05-14T02:10:32;93.97;;;27.93;;
19406;SDS011;9839;53.364;-1.204;2023-05-14T02:12:58;77.87;;;28.30;;
19406;SDS011;9839;53.364;-1.204;2023-05-14T02:15:23;79.53;;;29.30;;
19406;SDS011;9839;53.364;-1.204;2023-05-14T02:17:48;69.03;;;28.43;;
19406;SDS011;9839;53.364;-1.204;2023-05-14T02:20:14;68.83;;;28.63;;
19406;SDS011;9839;53.364;-1.204;2023-05-14T02:22:40;192.50;;;30.90;;
19406;SDS011;9839;53.364;-1.204;2023-05-14T02:25:09;122.60;;;32.27;;
19406;SDS011;9839;53.364;-1.204;2023-05-14T02:27:35;92.30;;;29.47;;
19406;SDS011;9839;53.364;-1.204;2023-05-14T02:30:02;75.60;;;28.67;;
19406;SDS011;9839;53.364;-1.204;2023-05-14T02:32:28;175.83;;;32.63;;
19406;SDS011;9839;53.364;-1.204;2023-05-14T02:34:54;189.73;;;32.60;;
19406;SDS011;9839;53.364;-1.204;2023-05-14T02:37:19;134.33;;;30.47;;
19406;SDS011;9839;53.364;-1.204;2023-05-14T02:39:45;87.53;;;27.87;;
19406;SDS011;9839;53.364;-1.204;2023-05-14T02:42:10;135.07;;;29.77;;
19406;SDS011;9839;53.364;-1.204;2023-05-14T02:44:35;98.70;;;27.20;;
19406;SDS011;9839;53.364;-1.204;2023-05-14T02:47:01;102.33;;;27.20;;
19406;SDS011;9839;53.364;-1.204;2023-05-14T02:49:26;102.23;;;27.27;;
19406;SDS011;9839;53.364;-1.204;2023-05-14T02:51:52;87.47;;;27.83;;
19406;SDS011;9839;53.364;-1.204;2023-05-14T02:54:18;127.93;;;30.63;;
19406;SDS011;9839;53.364;-1.204;2023-05-14T02:56:43;97.47;;;28.47;;
19406;SDS011;9839;53.364;-1.204;2023-05-14T02:59:09;96.40;;;27.57;;
19406;SDS011;9839;53.364;-1.204;2023-05-14T03:01:34;66.03;;;26.77;;
19406;SDS011;9839;53.364;-1.204;2023-05-14T03:04:00;70.00;;;27.87;;
19406;SDS011;9839;53.364;-1.204;2023-05-14T03:06:25;104.77;;;27.47;;
19406;SDS011;9839;53.364;-1.204;2023-05-14T03:08:51;92.43;;;28.27;;
19406;SDS011;9839;53.364;-1.204;2023-05-14T03:11:16;70.47;;;25.67;;
19406;SDS011;9839;53.364;-1.204;2023-05-14T03:13:42;98.33;;;26.03;;
19406;SDS011;9839;53.364;-1.204;2023-05-14T03:16:07;102.17;;;26.37;;
19406;SDS011;9839;53.364;-1.204;2023-05-14T03:18:33;131.77;;;26.60;;
19406;SDS011;9839;53.364;-1.204;2023-05-14T03:21:00;168.43;;;28.93;;
19406;SDS011;9839;53.364;-1.204;2023-05-14T03:23:25;150.37;;;29.13;;
19406;SDS011;9839;53.364;-1.204;2023-05-14T03:25:51;78.43;;;29.13;;
19406;SDS011;9839;53.364;-1.204;2023-05-14T03:28:16;93.30;;;28.90;;
19406;SDS011;9839;53.364;-1.204;2023-05-14T03:30:42;72.87;;;28.10;;
19406;SDS011;9839;53.364;-1.204;2023-05-14T03:33:07;128.67;;;30.53;;
19406;SDS011;9839;53.364;-1.204;2023-05-14T03:35:32;74.80;;;27.10;;
19406;SDS011;9839;53.364;-1.204;2023-05-14T03:37:58;95.30;;;29.43;;
19406;SDS011;9839;53.364;-1.204;2023-05-14T03:40:24;102.53;;;29.37;;
19406;SDS011;9839;53.364;-1.204;2023-05-14T03:42:49;90.70;;;28.37;;
19406;SDS011;9839;53.364;-1.204;2023-05-14T03:45:15;76.53;;;29.47;;
19406;SDS011;9839;53.364;-1.204;2023-05-14T03:47:40;172.20;;;30.73;;
19406;SDS011;9839;53.364;-1.204;2023-05-14T03:50:06;125.53;;;29.80;;
19406;SDS011;9839;53.364;-1.204;2023-05-14T03:52:32;68.87;;;27.40;;
19406;SDS011;9839;53.364;-1.204;2023-05-14T03:54:57;86.17;;;27.13;;
19406;SDS011;9839;53.364;-1.204;2023-05-14T03:57:23;77.77;;;28.17;;
19406;SDS011;9839;53.364;-1.204;2023-05-14T03:59:48;86.37;;;28.37;;
19406;SDS011;9839;53.364;-1.204;2023-05-14T04:02:14;106.77;;;28.20;;
19406;SDS011;9839;53.364;-1.204;2023-05-14T04:04:39;87.03;;;27.53;;
19406;SDS011;9839;53.364;-1.204;2023-05-14T04:07:06;94.13;;;26.57;;
19406;SDS011;9839;53.364;-1.204;2023-05-14T04:09:32;63.57;;;26.07;;
19406;SDS011;9839;53.364;-1.204;2023-05-14T04:11:58;68.07;;;27.07;;
19406;SDS011;9839;53.364;-1.204;2023-05-14T04:14:23;86.63;;;26.47;;
19406;SDS011;9839;53.364;-1.204;2023-05-14T04:16:49;66.17;;;26.73;;
19406;SDS011;9839;53.364;-1.204;2023-05-14T04:19:15;81.53;;;27.33;;
19406;SDS011;9839;53.364;-1.204;2023-05-14T04:21:40;253.47;;;32.20;;
19406;SDS011;9839;53.364;-1.204;2023-05-14T04:24:06;76.93;;;25.60;;
19406;SDS011;9839;53.364;-1.204;2023-05-14T04:26:31;129.87;;;26.20;;
19406;SDS011;9839;53.364;-1.204;2023-05-14T04:28:57;80.50;;;24.63;;
19406;SDS011;9839;53.364;-1.204;2023-05-14T04:31:26;71.23;;;24.80;;
19406;SDS011;9839;53.364;-1.204;2023-05-14T04:33:52;252.83;;;29.53;;
19406;SDS011;9839;53.364;-1.204;2023-05-14T04:36:17;86.40;;;26.23;;
19406;SDS011;9839;53.364;-1.204;2023-05-14T04:38:43;82.13;;;25.97;;
19406;SDS011;9839;53.364;-1.204;2023-05-14T04:41:09;60.40;;;25.13;;
19406;SDS011;9839;53.364;-1.204;2023-05-14T04:43:34;75.60;;;27.60;;
19406;SDS011;9839;53.364;-1.204;2023-05-14T04:45:59;105.20;;;28.37;;
19406;SDS011;9839;53.364;-1.204;2023-05-14T04:48:25;155.80;;;29.30;;
19406;SDS011;9839;53.364;-1.204;2023-05-14T04:50:51;144.90;;;28.60;;
19406;SDS011;9839;53.364;-1.204;2023-05-14T04:53:17;109.57;;;27.03;;
19406;SDS011;9839;53.364;-1.204;2023-05-14T04:55:42;61.00;;;23.33;;
19406;SDS011;9839;53.364;-1.204;2023-05-14T04:58:08;67.30;;;25.47;;
19406;SDS011;9839;53.364;-1.204;2023-05-14T05:00:33;92.43;;;25.00;;
19406;SDS011;9839;53.364;-1.204;2023-05-14T05:02:58;77.43;;;25.43;;
19406;SDS011;9839;53.364;-1.204;2023-05-14T05:05:24;67.37;;;25.07;;
19406;SDS011;9839;53.364;-1.204;2023-05-14T05:07:49;57.30;;;23.27;;
19406;SDS011;9839;53.364;-1.204;2023-05-14T05:10:15;111.10;;;25.57;;
19406;SDS011;9839;53.364;-1.204;2023-05-14T05:12:40;159.80;;;27.60;;
19406;SDS011;9839;53.364;-1.204;2023-05-14T05:15:06;80.10;;;26.60;;
19406;SDS011;9839;53.364;-1.204;2023-05-14T05:17:33;65.33;;;22.97;;
19406;SDS011;9839;53.364;-1.204;2023-05-14T05:19:58;59.77;;;24.13;;
19406;SDS011;9839;53.364;-1.204;2023-05-14T05:22:24;108.77;;;25.33;;
19406;SDS011;9839;53.364;-1.204;2023-05-14T05:24:50;65.57;;;23.37;;
19406;SDS011;9839;53.364;-1.204;2023-05-14T05:27:15;130.53;;;24.13;;
19406;SDS011;9839;53.364;-1.204;2023-05-14T05:29:40;151.57;;;24.90;;
19406;SDS011;9839;53.364;-1.204;2023-05-14T05:32:07;66.83;;;25.30;;
19406;SDS011;9839;53.364;-1.204;2023-05-14T05:34:33;78.00;;;25.47;;
19406;SDS011;9839;53.364;-1.204;2023-05-14T05:36:59;126.17;;;26.60;;
19406;SDS011;9839;53.364;-1.204;2023-05-14T05:39:25;58.90;;;24.73;;
19406;SDS011;9839;53.364;-1.204;2023-05-14T05:41:50;81.83;;;24.73;;
19406;SDS011;9839;53.364;-1.204;2023-05-14T05:44:16;110.53;;;24.73;;
19406;SDS011;9839;53.364;-1.204;2023-05-14T05:46:41;68.40;;;23.77;;
19406;SDS011;9839;53.364;-1.204;2023-05-14T05:49:07;105.87;;;24.47;;
19406;SDS011;9839;53.364;-1.204;2023-05-14T05:51:32;50.63;;;22.33;;
19406;SDS011;9839;53.364;-1.204;2023-05-14T05:53:57;84.10;;;22.23;;
19406;SDS011;9839;53.364;-1.204;2023-05-14T05:56:23;54.37;;;22.27;;
19406;SDS011;9839;53.364;-1.204;2023-05-14T05:58:48;52.43;;;21.73;;
19406;SDS011;9839;53.364;-1.204;2023-05-14T06:01:14;51.93;;;22.53;;
19406;SDS011;9839;53.364;-1.204;2023-05-14T06:03:39;73.33;;;21.30;;
19406;SDS011;9839;53.364;-1.204;2023-05-14T06:06:05;40.93;;;19.83;;
19406;SDS011;9839;53.364;-1.204;2023-05-14T06:08:30;40.03;;;20.67;;
19406;SDS011;9839;53.364;-1.204;2023-05-14T06:10:56;58.50;;;21.50;;
19406;SDS011;9839;53.364;-1.204;2023-05-14T06:13:21;45.00;;;19.40;;
19406;SDS011;9839;53.364;-1.204;2023-05-14T06:15:47;58.93;;;20.73;;
19406;SDS011;9839;53.364;-1.204;2023-05-14T06:18:12;54.33;;;20.97;;
19406;SDS011;9839;53.364;-1.204;2023-05-14T06:20:38;64.07;;;21.17;;
19406;SDS011;9839;53.364;-1.204;2023-05-14T06:23:05;44.40;;;20.07;;
19406;SDS011;9839;53.364;-1.204;2023-05-14T06:25:31;55.33;;;23.37;;
19406;SDS011;9839;53.364;-1.204;2023-05-14T06:27:57;60.87;;;21.37;;
19406;SDS011;9839;53.364;-1.204;2023-05-14T06:30:22;55.87;;;21.67;;
19406;SDS011;9839;53.364;-1.204;2023-05-14T06:32:48;56.50;;;21.00;;
19406;SDS011;9839;53.364;-1.204;2023-05-14T06:35:13;63.87;;;21.87;;
19406;SDS011;9839;53.364;-1.204;2023-05-14T06:37:38;51.13;;;22.10;;
19406;SDS011;9839;53.364;-1.204;2023-05-14T06:40:04;51.67;;;22.53;;
19406;SDS011;9839;53.364;-1.204;2023-05-14T06:42:30;53.00;;;22.53;;
19406;SDS011;9839;53.364;-1.204;2023-05-14T06:44:55;63.90;;;22.50;;
19406;SDS011;9839;53.364;-1.204;2023-05-14T06:47:21;48.80;;;24.57;;
19406;SDS011;9839;53.364;-1.204;2023-05-14T06:49:46;54.10;;;22.50;;
19406;SDS011;9839;53.364;-1.204;2023-05-14T06:52:12;45.77;;;21.30;;
19406;SDS011;9839;53.364;-1.204;2023-05-14T06:54:37;48.03;;;23.13;;
19406;SDS011;9839;53.364;-1.204;2023-05-14T06:57:03;54.07;;;23.70;;
19406;SDS011;9839;53.364;-1.204;2023-05-14T06:59:29;47.10;;;21.73;;
19406;SDS011;9839;53.364;-1.204;2023-05-14T07:01:54;65.03;;;24.43;;
19406;SDS011;9839;53.364;-1.204;2023-05-14T07:04:20;48.60;;;22.77;;
19406;SDS011;9839;53.364;-1.204;2023-05-14T07:06:45;89.00;;;21.35;;
19406;SDS011;9839;53.364;-1.204;2023-05-14T07:09:11;81.40;;;23.40;;
19406;SDS011;9839;53.364;-1.204;2023-05-14T07:11:37;40.25;;;20.05;;
19406;SDS011;9839;53.364;-1.204;2023-05-14T07:14:02;42.40;;;19.57;;
19406;SDS011;9839;53.364;-1.204;2023-05-14T07:16:28;42.92;;;20.75;;
19406;SDS011;9839;53.364;-1.204;2023-05-14T07:18:53;40.75;;;19.95;;
19406;SDS011;9839;53.364;-1.204;2023-05-14T07:21:18;37.17;;;19.70;;
19406;SDS011;9839;53.364;-1.204;2023-05-14T07:23:44;38.17;;;19.42;;
19406;SDS011;9839;53.364;-1.204;2023-05-14T07:26:09;38.65;;;20.00;;
19406;SDS011;9839;53.364;-1.204;2023-05-14T07:28:35;50.13;;;21.17;;
19406;SDS011;9839;53.364;-1.204;2023-05-14T07:31:00;35.65;;;19.30;;
19406;SDS011;9839;53.364;-1.204;2023-05-14T07:33:26;34.83;;;18.95;;
19406;SDS011;9839;53.364;-1.204;2023-05-14T07:35:51;57.40;;;20.30;;
19406;SDS011;9839;53.364;-1.204;2023-05-14T07:38:18;34.60;;;18.85;;
19406;SDS011;9839;53.364;-1.204;2023-05-14T07:40:43;37.17;;;20.20;;
19406;SDS011;9839;53.364;-1.204;2023-05-14T07:43:09;45.65;;;20.25;;
19406;SDS011;9839;53.364;-1.204;2023-05-14T07:45:35;36.03;;;19.80;;
19406;SDS011;9839;53.364;-1.204;2023-05-14T07:48:01;38.65;;;19.50;;
19406;SDS011;9839;53.364;-1.204;2023-05-14T07:50:26;36.13;;;18.30;;
19406;SDS011;9839;53.364;-1.204;2023-05-14T07:52:51;32.78;;;19.05;;
19406;SDS011;9839;53.364;-1.204;2023-05-14T07:55:17;34.88;;;19.45;;
19406;SDS011;9839;53.364;-1.204;2023-05-14T07:57:42;37.28;;;18.67;;
19406;SDS011;9839;53.364;-1.204;2023-05-14T08:00:08;34.63;;;18.58;;
19406;SDS011;9839;53.364;-1.204;2023-05-14T08:02:33;39.92;;;20.45;;
19406;SDS011;9839;53.364;-1.204;2023-05-14T08:04:59;37.05;;;20.17;;
19406;SDS011;9839;53.364;-1.204;2023-05-14T08:07:24;35.63;;;18.77;;
19406;SDS011;9839;53.364;-1.204;2023-05-14T08:09:51;33.25;;;18.90;;
19406;SDS011;9839;53.364;-1.204;2023-05-14T08:12:17;36.25;;;19.20;;
19406;SDS011;9839;53.364;-1.204;2023-05-14T08:14:42;38.05;;;20.20;;
19406;SDS011;9839;53.364;-1.204;2023-05-14T08:17:08;34.55;;;18.77;;
19406;SDS011;9839;53.364;-1.204;2023-05-14T08:19:33;35.17;;;20.05;;
19406;SDS011;9839;53.364;-1.204;2023-05-14T08:21:59;33.08;;;18.05;;
19406;SDS011;9839;53.364;-1.204;2023-05-14T08:24:24;33.72;;;19.17;;
19406;SDS011;9839;53.364;-1.204;2023-05-14T08:26:50;36.83;;;20.08;;
19406;SDS011;9839;53.364;-1.204;2023-05-14T08:29:16;37.72;;;19.95;;
19406;SDS011;9839;53.364;-1.204;2023-05-14T08:31:41;37.67;;;21.20;;
19406;SDS011;9839;53.364;-1.204;2023-05-14T08:34:07;36.30;;;19.90;;
19406;SDS011;9839;53.364;-1.204;2023-05-14T08:36:32;36.55;;;19.67;;
19406;SDS011;9839;53.364;-1.204;2023-05-14T08:38:58;35.20;;;20.05;;
19406;SDS011;9839;53.364;-1.204;2023-05-14T08:41:23;34.08;;;19.50;;
19406;SDS011;9839;53.364;-1.204;2023-05-14T08:46:14;34.83;;;18.60;;
19406;SDS011;9839;53.364;-1.204;2023-05-14T08:48:41;37.03;;;20.50;;
19406;SDS011;9839;53.364;-1.204;2023-05-14T08:51:07;34.80;;;19.77;;
19406;SDS011;9839;53.364;-1.204;2023-05-14T08:53:33;34.97;;;19.70;;
19406;SDS011;9839;53.364;-1.204;2023-05-14T08:56:00;33.13;;;19.25;;
19406;SDS011;9839;53.364;-1.204;2023-05-14T08:58:26;35.47;;;20.05;;
19406;SDS011;9839;53.364;-1.204;2023-05-14T09:00:52;32.42;;;18.80;;
19406;SDS011;9839;53.364;-1.204;2023-05-14T09:03:19;39.50;;;21.02;;
19406;SDS011;9839;53.364;-1.204;2023-05-14T09:05:45;32.95;;;20.45;;
19406;SDS011;9839;53.364;-1.204;2023-05-14T09:08:13;36.95;;;20.65;;
19406;SDS011;9839;53.364;-1.204;2023-05-14T09:10:38;32.75;;;18.13;;
19406;SDS011;9839;53.364;-1.204;2023-05-14T09:13:04;32.45;;;19.00;;
19406;SDS011;9839;53.364;-1.204;2023-05-14T09:15:30;30.30;;;19.33;;
19406;SDS011;9839;53.364;-1.204;2023-05-14T09:17:56;35.67;;;20.08;;
19406;SDS011;9839;53.364;-1.204;2023-05-14T09:20:21;35.13;;;19.20;;
19406;SDS011;9839;53.364;-1.204;2023-05-14T09:22:51;32.85;;;19.88;;
19406;SDS011;9839;53.364;-1.204;2023-05-14T09:25:17;33.58;;;19.13;;
19406;SDS011;9839;53.364;-1.204;2023-05-14T09:27:44;33.33;;;19.17;;
19406;SDS011;9839;53.364;-1.204;2023-05-14T09:30:14;32.80;;;18.30;;
19406;SDS011;9839;53.364;-1.204;2023-05-14T09:32:40;36.85;;;19.90;;
19406;SDS011;9839;53.364;-1.204;2023-05-14T09:35:18;33.58;;;19.48;;
19406;SDS011;9839;53.364;-1.204;2023-05-14T09:37:48;31.80;;;18.67;;
19406;SDS011;9839;53.364;-1.204;2023-05-14T09:40:16;27.52;;;17.40;;
19406;SDS011;9839;53.364;-1.204;2023-05-14T09:42:42;28.52;;;17.73;;
19406;SDS011;9839;53.364;-1.204;2023-05-14T09:45:07;30.52;;;19.05;;
19406;SDS011;9839;53.364;-1.204;2023-05-14T09:47:34;28.70;;;17.88;;
19406;SDS011;9839;53.364;-1.204;2023-05-14T09:50:01;28.52;;;18.60;;
19406;SDS011;9839;53.364;-1.204;2023-05-14T09:52:26;29.65;;;18.48;;
19406;SDS011;9839;53.364;-1.204;2023-05-14T09:54:52;26.73;;;16.80;;
19406;SDS011;9839;53.364;-1.204;2023-05-14T09:57:18;29.77;;;18.20;;
19406;SDS011;9839;53.364;-1.204;2023-05-14T09:59:44;32.30;;;18.10;;
19406;SDS011;9839;53.364;-1.204;2023-05-14T10:02:16;27.58;;;17.50;;
19406;SDS011;9839;53.364;-1.204;2023-05-14T10:04:48;24.75;;;15.77;;
19406;SDS011;9839;53.364;-1.204;2023-05-14T10:07:16;32.83;;;17.35;;
19406;SDS011;9839;53.364;-1.204;2023-05-14T10:09:47;31.75;;;17.63;;
19406;SDS011;9839;53.364;-1.204;2023-05-14T10:12:12;26.35;;;17.00;;
19406;SDS011;9839;53.364;-1.204;2023-05-14T10:14:42;27.38;;;17.38;;
19406;SDS011;9839;53.364;-1.204;2023-05-14T10:17:13;25.20;;;16.38;;
19406;SDS011;9839;53.364;-1.204;2023-05-14T10:19:42;29.45;;;17.25;;
19406;SDS011;9839;53.364;-1.204;2023-05-14T10:22:12;26.15;;;16.80;;
19406;SDS011;9839;53.364;-1.204;2023-05-14T10:24:39;24.42;;;15.00;;
19406;SDS011;9839;53.364;-1.204;2023-05-14T10:27:05;30.85;;;17.48;;
19406;SDS011;9839;53.364;-1.204;2023-05-14T10:29:35;24.60;;;15.80;;
19406;SDS011;9839;53.364;-1.204;2023-05-14T10:32:05;23.00;;;15.27;;
19406;SDS011;9839;53.364;-1.204;2023-05-14T10:37:21;23.63;;;14.35;;
19406;SDS011;9839;53.364;-1.204;2023-05-14T10:39:51;24.10;;;14.25;;
19406;SDS011;9839;53.364;-1.204;2023-05-14T10:42:24;23.92;;;14.07;;
19406;SDS011;9839;53.364;-1.204;2023-05-14T10:45:04;21.73;;;13.82;;
19406;SDS011;9839;53.364;-1.204;2023-05-14T10:47:32;23.13;;;15.35;;
19406;SDS011;9839;53.364;-1.204;2023-05-14T10:50:01;23.80;;;15.10;;
19406;SDS011;9839;53.364;-1.204;2023-05-14T10:52:28;24.05;;;14.48;;
19406;SDS011;9839;53.364;-1.204;2023-05-14T10:57:21;22.02;;;13.90;;
19406;SDS011;9839;53.364;-1.204;2023-05-14T10:59:47;21.10;;;13.90;;
19406;SDS011;9839;53.364;-1.204;2023-05-14T11:02:30;23.45;;;15.70;;
19406;SDS011;9839;53.364;-1.204;2023-05-14T11:05:00;22.98;;;14.70;;
19406;SDS011;9839;53.364;-1.204;2023-05-14T11:07:30;19.40;;;12.73;;
19406;SDS011;9839;53.364;-1.204;2023-05-14T11:10:01;19.92;;;13.38;;
19406;SDS011;9839;53.364;-1.204;2023-05-14T11:12:32;22.63;;;14.80;;
19406;SDS011;9839;53.364;-1.204;2023-05-14T11:14:59;24.13;;;14.63;;
19406;SDS011;9839;53.364;-1.204;2023-05-14T11:17:26;25.10;;;15.77;;
19406;SDS011;9839;53.364;-1.204;2023-05-14T11:19:53;24.92;;;15.15;;
19406;SDS011;9839;53.364;-1.204;2023-05-14T11:22:19;20.65;;;13.70;;
19406;SDS011;9839;53.364;-1.204;2023-05-14T11:24:45;22.67;;;14.98;;
19406;SDS011;9839;53.364;-1.204;2023-05-14T11:27:10;22.60;;;14.52;;
19406;SDS011;9839;53.364;-1.204;2023-05-14T11:29:36;25.60;;;15.40;;
19406;SDS011;9839;53.364;-1.204;2023-05-14T11:32:05;25.50;;;15.50;;
19406;SDS011;9839;53.364;-1.204;2023-05-14T11:34:31;28.95;;;14.85;;
19406;SDS011;9839;53.364;-1.204;2023-05-14T11:36:58;22.73;;;14.25;;
19406;SDS011;9839;53.364;-1.204;2023-05-14T11:39:26;22.88;;;13.75;;
19406;SDS011;9839;53.364;-1.204;2023-05-14T11:41:52;21.00;;;14.00;;
19406;SDS011;9839;53.364;-1.204;2023-05-14T11:44:17;20.58;;;13.02;;
19406;SDS011;9839;53.364;-1.204;2023-05-14T11:46:52;20.63;;;13.38;;
19406;SDS011;9839;53.364;-1.204;2023-05-14T11:49:24;22.48;;;13.20;;
19406;SDS011;9839;53.364;-1.204;2023-05-14T11:51:57;16.92;;;12.57;;
19406;SDS011;9839;53.364;-1.204;2023-05-14T11:54:27;16.10;;;11.85;;
19406;SDS011;9839;53.364;-1.204;2023-05-14T11:56:53;17.05;;;12.07;;
19406;SDS011;9839;53.364;-1.204;2023-05-14T11:59:20;19.20;;;13.40;;
19406;SDS011;9839;53.364;-1.204;2023-05-14T12:01:45;17.15;;;10.80;;
19406;SDS011;9839;53.364;-1.204;2023-05-14T12:04:11;17.50;;;11.38;;
19406;SDS011;9839;53.364;-1.204;2023-05-14T12:06:38;17.17;;;11.95;;
19406;SDS011;9839;53.364;-1.204;2023-05-14T12:09:04;16.40;;;11.00;;
19406;SDS011;9839;53.364;-1.204;2023-05-14T12:11:30;13.68;;;9.73;;
19406;SDS011;9839;53.364;-1.204;2023-05-14T12:13:56;13.15;;;9.45;;
19406;SDS011;9839;53.364;-1.204;2023-05-14T12:16:22;14.45;;;9.13;;
19406;SDS011;9839;53.364;-1.204;2023-05-14T12:18:48;13.82;;;9.73;;
19406;SDS011;9839;53.364;-1.204;2023-05-14T12:21:13;16.10;;;9.07;;
19406;SDS011;9839;53.364;-1.204;2023-05-14T12:23:39;13.13;;;8.75;;
19406;SDS011;9839;53.364;-1.204;2023-05-14T12:26:05;13.32;;;8.75;;
19406;SDS011;9839;53.364;-1.204;2023-05-14T12:28:32;11.32;;;8.68;;
19406;SDS011;9839;53.364;-1.204;2023-05-14T12:30:58;10.52;;;7.78;;
19406;SDS011;9839;53.364;-1.204;2023-05-14T12:33:27;13.90;;;8.98;;
19406;SDS011;9839;53.364;-1.204;2023-05-14T12:35:52;16.90;;;9.05;;
19406;SDS011;9839;53.364;-1.204;2023-05-14T12:38:18;13.57;;;9.38;;
19406;SDS011;9839;53.364;-1.204;2023-05-14T12:40:44;14.05;;;8.80;;
19406;SDS011;9839;53.364;-1.204;2023-05-14T12:43:09;10.38;;;7.72;;
19406;SDS011;9839;53.364;-1.204;2023-05-14T12:45:35;15.60;;;9.65;;
19406;SDS011;9839;53.364;-1.204;2023-05-14T12:48:01;13.55;;;9.52;;
19406;SDS011;9839;53.364;-1.204;2023-05-14T12:50:26;12.48;;;8.65;;
19406;SDS011;9839;53.364;-1.204;2023-05-14T12:52:52;15.82;;;8.73;;
19406;SDS011;9839;53.364;-1.204;2023-05-14T12:55:17;13.13;;;9.40;;
19406;SDS011;9839;53.364;-1.204;2023-05-14T12:57:43;12.50;;;9.32;;
19406;SDS011;9839;53.364;-1.204;2023-05-14T13:00:08;15.48;;;9.25;;
19406;SDS011;9839;53.364;-1.204;2023-05-14T13:02:35;12.50;;;8.48;;
19406;SDS011;9839;53.364;-1.204;2023-05-14T13:05:00;12.38;;;8.50;;
19406;SDS011;9839;53.364;-1.204;2023-05-14T13:07:27;13.88;;;8.80;;
19406;SDS011;9839;53.364;-1.204;2023-05-14T13:09:54;11.90;;;8.68;;
19406;SDS011;9839;53.364;-1.204;2023-05-14T13:12:20;9.65;;;6.75;;
19406;SDS011;9839;53.364;-1.204;2023-05-14T13:14:45;11.95;;;8.82;;
19406;SDS011;9839;53.364;-1.204;2023-05-14T13:17:11;13.32;;;8.43;;
19406;SDS011;9839;53.364;-1.204;2023-05-14T13:19:36;10.60;;;7.20;;
19406;SDS011;9839;53.364;-1.204;2023-05-14T13:22:02;10.85;;;6.88;;
19406;SDS011;9839;53.364;-1.204;2023-05-14T13:24:27;8.95;;;6.38;;
19406;SDS011;9839;53.364;-1.204;2023-05-14T13:26:53;8.23;;;6.10;;
19406;SDS011;9839;53.364;-1.204;2023-05-14T13:29:18;8.05;;;5.60;;
19406;SDS011;9839;53.364;-1.204;2023-05-14T13:31:43;12.77;;;8.10;;
19406;SDS011;9839;53.364;-1.204;2023-05-14T13:34:09;10.57;;;7.35;;
19406;SDS011;9839;53.364;-1.204;2023-05-14T13:36:34;11.73;;;8.02;;
19406;SDS011;9839;53.364;-1.204;2023-05-14T13:39:03;12.23;;;7.93;;
19406;SDS011;9839;53.364;-1.204;2023-05-14T13:41:32;12.05;;;6.40;;
19406;SDS011;9839;53.364;-1.204;2023-05-14T13:43:59;8.70;;;5.80;;
19406;SDS011;9839;53.364;-1.204;2023-05-14T13:46:25;6.68;;;5.22;;
19406;SDS011;9839;53.364;-1.204;2023-05-14T13:48:50;6.28;;;4.70;;
19406;SDS011;9839;53.364;-1.204;2023-05-14T13:51:16;7.60;;;5.65;;
19406;SDS011;9839;53.364;-1.204;2023-05-14T13:53:41;8.43;;;5.65;;
19406;SDS011;9839;53.364;-1.204;2023-05-14T13:56:08;7.93;;;6.20;;
19406;SDS011;9839;53.364;-1.204;2023-05-14T13:58:33;7.70;;;5.78;;
19406;SDS011;9839;53.364;-1.204;2023-05-14T14:00:59;9.15;;;6.03;;
19406;SDS011;9839;53.364;-1.204;2023-05-14T14:03:24;10.63;;;6.30;;
19406;SDS011;9839;53.364;-1.204;2023-05-14T14:05:50;8.00;;;5.47;;
19406;SDS011;9839;53.364;-1.204;2023-05-14T14:08:16;7.93;;;3.75;;
19406;SDS011;9839;53.364;-1.204;2023-05-14T14:10:42;5.40;;;3.72;;
19406;SDS011;9839;53.364;-1.204;2023-05-14T14:13:08;5.30;;;3.25;;
19406;SDS011;9839;53.364;-1.204;2023-05-14T14:15:35;5.43;;;3.05;;
19406;SDS011;9839;53.364;-1.204;2023-05-14T14:18:01;3.00;;;2.58;;
19406;SDS011;9839;53.364;-1.204;2023-05-14T14:20:26;3.50;;;2.53;;
19406;SDS011;9839;53.364;-1.204;2023-05-14T14:22:53;2.95;;;2.50;;
19406;SDS011;9839;53.364;-1.204;2023-05-14T14:25:18;7.93;;;3.00;;
19406;SDS011;9839;53.364;-1.204;2023-05-14T14:27:44;5.25;;;3.45;;